sensor_id;sensor_type;location;lat;lon;timestamp;P1;durP1;ratioP1;P2;durP2;ratioP2
76065;SDS011;64763;48.928;8.474;2023-05-29T00:01:16;9.13;;;4.30;;
76065;SDS011;64763;48.928;8.474;2023-05-29T00:03:46;9.30;;;5.03;;
76065;SDS011;64763;48.928;8.474;2023-05-29T00:06:11;9.70;;;4.88;;
76065;SDS011;64763;48.928;8.474;2023-05-29T00:08:37;7.78;;;4.95;;
76065;SDS011;64763;48.928;8.474;2023-05-29T00:11:02;8.43;;;3.90;;
76065;SDS011;64763;48.928;8.474;2023-05-29T00:13:28;8.05;;;4.53;;
76065;SDS011;64763;48.928;8.474;2023-05-29T00:15:53;8.90;;;4.63;;
76065;SDS011;64763;48.928;8.474;2023-05-29T00:18:19;7.80;;;4.63;;
76065;SDS011;64763;48.928;8.474;2023-05-29T00:20:44;11.23;;;5.38;;
76065;SDS011;64763;48.928;8.474;2023-05-29T00:23:09;11.70;;;5.05;;
76065;SDS011;64763;48.928;8.474;2023-05-29T00:25:35;8.13;;;4.65;;
76065;SDS011;64763;48.928;8.474;2023-05-29T00:28:00;8.00;;;4.43;;
76065;SDS011;64763;48.928;8.474;2023-05-29T00:30:26;10.90;;;5.10;;
76065;SDS011;64763;48.928;8.474;2023-05-29T00:32:51;9.57;;;4.78;;
76065;SDS011;64763;48.928;8.474;2023-05-29T00:35:19;9.38;;;5.57;;
76065;SDS011;64763;48.928;8.474;2023-05-29T00:37:45;9.80;;;5.00;;
76065;SDS011;64763;48.928;8.474;2023-05-29T00:40:10;8.80;;;5.10;;
76065;SDS011;64763;48.928;8.474;2023-05-29T00:42:36;10.07;;;5.25;;
76065;SDS011;64763;48.928;8.474;2023-05-29T00:45:02;9.18;;;5.03;;
76065;SDS011;64763;48.928;8.474;2023-05-29T00:47:27;10.75;;;5.28;;
76065;SDS011;64763;48.928;8.474;2023-05-29T00:49:53;11.07;;;5.35;;
76065;SDS011;64763;48.928;8.474;2023-05-29T00:52:20;9.48;;;5.22;;
76065;SDS011;64763;48.928;8.474;2023-05-29T00:54:46;9.30;;;4.85;;
76065;SDS011;64763;48.928;8.474;2023-05-29T00:57:12;10.15;;;4.70;;
76065;SDS011;64763;48.928;8.474;2023-05-29T00:59:38;10.68;;;5.22;;
76065;SDS011;64763;48.928;8.474;2023-05-29T01:02:04;9.85;;;4.90;;
76065;SDS011;64763;48.928;8.474;2023-05-29T01:04:31;11.68;;;5.60;;
76065;SDS011;64763;48.928;8.474;2023-05-29T01:06:59;10.93;;;4.80;;
76065;SDS011;64763;48.928;8.474;2023-05-29T01:09:25;10.88;;;5.50;;
76065;SDS011;64763;48.928;8.474;2023-05-29T01:14:33;10.07;;;5.47;;
76065;SDS011;64763;48.928;8.474;2023-05-29T01:17:13;8.70;;;4.80;;
76065;SDS011;64763;48.928;8.474;2023-05-29T01:20:04;8.63;;;5.20;;
76065;SDS011;64763;48.928;8.474;2023-05-29T01:22:54;8.35;;;4.90;;
76065;SDS011;64763;48.928;8.474;2023-05-29T01:28:07;8.63;;;4.32;;
76065;SDS011;64763;48.928;8.474;2023-05-29T01:30:34;7.32;;;4.35;;
76065;SDS011;64763;48.928;8.474;2023-05-29T01:33:00;8.52;;;4.50;;
76065;SDS011;64763;48.928;8.474;2023-05-29T01:35:25;9.27;;;4.80;;
76065;SDS011;64763;48.928;8.474;2023-05-29T01:37:51;8.45;;;4.75;;
76065;SDS011;64763;48.928;8.474;2023-05-29T01:40:16;10.15;;;5.03;;
76065;SDS011;64763;48.928;8.474;2023-05-29T01:42:41;8.57;;;4.75;;
76065;SDS011;64763;48.928;8.474;2023-05-29T01:45:07;7.20;;;4.35;;
76065;SDS011;64763;48.928;8.474;2023-05-29T01:47:33;7.30;;;4.28;;
76065;SDS011;64763;48.928;8.474;2023-05-29T01:49:59;8.18;;;5.07;;
76065;SDS011;64763;48.928;8.474;2023-05-29T01:52:25;10.00;;;4.72;;
76065;SDS011;64763;48.928;8.474;2023-05-29T01:54:50;8.88;;;4.32;;
76065;SDS011;64763;48.928;8.474;2023-05-29T01:57:16;10.73;;;5.13;;
76065;SDS011;64763;48.928;8.474;2023-05-29T01:59:41;8.48;;;4.57;;
76065;SDS011;64763;48.928;8.474;2023-05-29T02:02:07;8.23;;;4.30;;
76065;SDS011;64763;48.928;8.474;2023-05-29T02:04:33;6.10;;;3.95;;
76065;SDS011;64763;48.928;8.474;2023-05-29T02:06:58;9.98;;;4.85;;
76065;SDS011;64763;48.928;8.474;2023-05-29T02:09:24;8.90;;;4.68;;
76065;SDS011;64763;48.928;8.474;2023-05-29T02:11:50;8.00;;;4.18;;
76065;SDS011;64763;48.928;8.474;2023-05-29T02:14:15;7.63;;;4.68;;
76065;SDS011;64763;48.928;8.474;2023-05-29T02:16:40;10.27;;;4.03;;
76065;SDS011;64763;48.928;8.474;2023-05-29T02:19:06;8.68;;;5.03;;
76065;SDS011;64763;48.928;8.474;2023-05-29T02:21:31;9.77;;;4.88;;
76065;SDS011;64763;48.928;8.474;2023-05-29T02:23:57;8.02;;;4.65;;
76065;SDS011;64763;48.928;8.474;2023-05-29T02:26:22;8.68;;;4.10;;
76065;SDS011;64763;48.928;8.474;2023-05-29T02:28:48;9.38;;;4.53;;
76065;SDS011;64763;48.928;8.474;2023-05-29T02:31:13;8.10;;;4.50;;
76065;SDS011;64763;48.928;8.474;2023-05-29T02:33:38;10.73;;;4.45;;
76065;SDS011;64763;48.928;8.474;2023-05-29T02:36:04;9.15;;;3.85;;
76065;SDS011;64763;48.928;8.474;2023-05-29T02:38:29;8.93;;;4.28;;
76065;SDS011;64763;48.928;8.474;2023-05-29T02:40:54;7.82;;;3.97;;
76065;SDS011;64763;48.928;8.474;2023-05-29T02:43:21;8.52;;;4.70;;
76065;SDS011;64763;48.928;8.474;2023-05-29T02:45:46;8.50;;;4.32;;
76065;SDS011;64763;48.928;8.474;2023-05-29T02:48:11;8.80;;;4.18;;
76065;SDS011;64763;48.928;8.474;2023-05-29T02:50:37;6.93;;;3.97;;
76065;SDS011;64763;48.928;8.474;2023-05-29T02:53:02;9.63;;;5.13;;
76065;SDS011;64763;48.928;8.474;2023-05-29T02:55:27;7.22;;;4.13;;
76065;SDS011;64763;48.928;8.474;2023-05-29T02:57:53;9.82;;;4.72;;
76065;SDS011;64763;48.928;8.474;2023-05-29T03:00:20;9.27;;;4.65;;
76065;SDS011;64763;48.928;8.474;2023-05-29T03:02:45;9.88;;;4.78;;
76065;SDS011;64763;48.928;8.474;2023-05-29T03:05:11;12.02;;;6.25;;
76065;SDS011;64763;48.928;8.474;2023-05-29T03:07:36;7.30;;;4.00;;
76065;SDS011;64763;48.928;8.474;2023-05-29T03:10:02;9.25;;;4.88;;
76065;SDS011;64763;48.928;8.474;2023-05-29T03:12:29;7.35;;;4.88;;
76065;SDS011;64763;48.928;8.474;2023-05-29T03:14:54;9.35;;;5.30;;
76065;SDS011;64763;48.928;8.474;2023-05-29T03:17:21;8.80;;;4.63;;
76065;SDS011;64763;48.928;8.474;2023-05-29T03:19:46;9.85;;;5.30;;
76065;SDS011;64763;48.928;8.474;2023-05-29T03:22:12;8.57;;;4.55;;
76065;SDS011;64763;48.928;8.474;2023-05-29T03:24:37;10.52;;;4.97;;
76065;SDS011;64763;48.928;8.474;2023-05-29T03:27:03;9.70;;;4.63;;
76065;SDS011;64763;48.928;8.474;2023-05-29T03:29:29;8.38;;;4.75;;
76065;SDS011;64763;48.928;8.474;2023-05-29T03:31:55;8.75;;;4.65;;
76065;SDS011;64763;48.928;8.474;2023-05-29T03:34:21;7.57;;;4.35;;
76065;SDS011;64763;48.928;8.474;2023-05-29T03:36:46;8.43;;;4.10;;
76065;SDS011;64763;48.928;8.474;2023-05-29T03:39:11;8.88;;;4.95;;
76065;SDS011;64763;48.928;8.474;2023-05-29T03:41:37;6.07;;;3.88;;
76065;SDS011;64763;48.928;8.474;2023-05-29T03:44:02;6.35;;;4.07;;
76065;SDS011;64763;48.928;8.474;2023-05-29T03:46:28;9.30;;;5.03;;
76065;SDS011;64763;48.928;8.474;2023-05-29T03:48:53;7.93;;;4.40;;
76065;SDS011;64763;48.928;8.474;2023-05-29T03:51:18;9.32;;;5.30;;
76065;SDS011;64763;48.928;8.474;2023-05-29T03:53:44;8.68;;;4.47;;
76065;SDS011;64763;48.928;8.474;2023-05-29T03:56:09;10.57;;;5.45;;
76065;SDS011;64763;48.928;8.474;2023-05-29T03:58:34;7.88;;;4.20;;
76065;SDS011;64763;48.928;8.474;2023-05-29T04:01:01;10.48;;;4.55;;
76065;SDS011;64763;48.928;8.474;2023-05-29T04:03:27;7.82;;;4.57;;
76065;SDS011;64763;48.928;8.474;2023-05-29T04:05:54;8.30;;;4.18;;
76065;SDS011;64763;48.928;8.474;2023-05-29T04:08:20;8.57;;;4.30;;
76065;SDS011;64763;48.928;8.474;2023-05-29T04:10:46;9.20;;;4.68;;
76065;SDS011;64763;48.928;8.474;2023-05-29T04:13:11;8.70;;;4.63;;
76065;SDS011;64763;48.928;8.474;2023-05-29T04:15:36;8.50;;;4.70;;
76065;SDS011;64763;48.928;8.474;2023-05-29T04:18:02;10.05;;;4.78;;
76065;SDS011;64763;48.928;8.474;2023-05-29T04:20:28;9.88;;;5.05;;
76065;SDS011;64763;48.928;8.474;2023-05-29T04:22:53;9.70;;;5.72;;
76065;SDS011;64763;48.928;8.474;2023-05-29T04:25:19;8.73;;;4.80;;
76065;SDS011;64763;48.928;8.474;2023-05-29T04:27:44;7.93;;;4.57;;
76065;SDS011;64763;48.928;8.474;2023-05-29T04:30:14;8.18;;;4.60;;
76065;SDS011;64763;48.928;8.474;2023-05-29T04:32:39;8.13;;;4.85;;
76065;SDS011;64763;48.928;8.474;2023-05-29T04:35:05;7.20;;;4.25;;
76065;SDS011;64763;48.928;8.474;2023-05-29T04:37:31;8.27;;;4.75;;
76065;SDS011;64763;48.928;8.474;2023-05-29T04:40:02;10.55;;;4.60;;
76065;SDS011;64763;48.928;8.474;2023-05-29T04:42:32;9.13;;;4.68;;
76065;SDS011;64763;48.928;8.474;2023-05-29T04:44:58;8.38;;;4.18;;
76065;SDS011;64763;48.928;8.474;2023-05-29T04:47:24;10.63;;;4.85;;
76065;SDS011;64763;48.928;8.474;2023-05-29T04:49:49;9.18;;;4.80;;
76065;SDS011;64763;48.928;8.474;2023-05-29T04:52:18;6.28;;;3.90;;
76065;SDS011;64763;48.928;8.474;2023-05-29T04:54:43;8.23;;;3.90;;
76065;SDS011;64763;48.928;8.474;2023-05-29T04:57:09;9.43;;;4.60;;
76065;SDS011;64763;48.928;8.474;2023-05-29T04:59:35;9.40;;;4.30;;
76065;SDS011;64763;48.928;8.474;2023-05-29T05:02:00;7.18;;;4.43;;
76065;SDS011;64763;48.928;8.474;2023-05-29T05:04:26;9.07;;;4.20;;
76065;SDS011;64763;48.928;8.474;2023-05-29T05:06:51;6.80;;;3.88;;
76065;SDS011;64763;48.928;8.474;2023-05-29T05:09:16;6.38;;;3.58;;
76065;SDS011;64763;48.928;8.474;2023-05-29T05:11:42;6.18;;;3.63;;
76065;SDS011;64763;48.928;8.474;2023-05-29T05:14:08;6.53;;;4.05;;
76065;SDS011;64763;48.928;8.474;2023-05-29T05:16:33;6.38;;;3.83;;
76065;SDS011;64763;48.928;8.474;2023-05-29T05:18:58;6.85;;;3.50;;
76065;SDS011;64763;48.928;8.474;2023-05-29T05:21:24;8.73;;;3.72;;
76065;SDS011;64763;48.928;8.474;2023-05-29T05:23:49;8.10;;;4.25;;
76065;SDS011;64763;48.928;8.474;2023-05-29T05:26:15;6.40;;;3.85;;
76065;SDS011;64763;48.928;8.474;2023-05-29T05:28:40;7.75;;;3.72;;
76065;SDS011;64763;48.928;8.474;2023-05-29T05:31:05;7.88;;;4.00;;
76065;SDS011;64763;48.928;8.474;2023-05-29T05:33:31;6.82;;;4.03;;
76065;SDS011;64763;48.928;8.474;2023-05-29T05:35:56;7.78;;;3.92;;
76065;SDS011;64763;48.928;8.474;2023-05-29T05:38:22;7.53;;;3.58;;
76065;SDS011;64763;48.928;8.474;2023-05-29T05:40:47;8.38;;;3.97;;
76065;SDS011;64763;48.928;8.474;2023-05-29T05:43:12;7.80;;;4.32;;
76065;SDS011;64763;48.928;8.474;2023-05-29T05:45:38;6.47;;;3.90;;
76065;SDS011;64763;48.928;8.474;2023-05-29T05:48:07;6.68;;;3.90;;
76065;SDS011;64763;48.928;8.474;2023-05-29T05:50:32;8.80;;;3.83;;
76065;SDS011;64763;48.928;8.474;2023-05-29T05:52:58;8.50;;;3.80;;
76065;SDS011;64763;48.928;8.474;2023-05-29T05:55:23;7.03;;;4.05;;
76065;SDS011;64763;48.928;8.474;2023-05-29T05:57:48;7.93;;;3.90;;
76065;SDS011;64763;48.928;8.474;2023-05-29T06:00:14;6.35;;;3.85;;
76065;SDS011;64763;48.928;8.474;2023-05-29T06:02:40;8.82;;;3.90;;
76065;SDS011;64763;48.928;8.474;2023-05-29T06:05:07;5.97;;;3.10;;
76065;SDS011;64763;48.928;8.474;2023-05-29T06:07:34;6.72;;;3.72;;
76065;SDS011;64763;48.928;8.474;2023-05-29T06:10:00;4.65;;;3.05;;
76065;SDS011;64763;48.928;8.474;2023-05-29T06:12:26;8.27;;;3.70;;
76065;SDS011;64763;48.928;8.474;2023-05-29T06:14:51;5.80;;;3.35;;
76065;SDS011;64763;48.928;8.474;2023-05-29T06:17:16;6.18;;;3.42;;
76065;SDS011;64763;48.928;8.474;2023-05-29T06:19:42;8.02;;;3.50;;
76065;SDS011;64763;48.928;8.474;2023-05-29T06:22:07;5.50;;;2.85;;
76065;SDS011;64763;48.928;8.474;2023-05-29T06:24:33;9.18;;;3.75;;
76065;SDS011;64763;48.928;8.474;2023-05-29T06:26:58;6.53;;;3.47;;
76065;SDS011;64763;48.928;8.474;2023-05-29T06:29:23;5.40;;;3.40;;
76065;SDS011;64763;48.928;8.474;2023-05-29T06:31:49;7.57;;;3.35;;
76065;SDS011;64763;48.928;8.474;2023-05-29T06:34:14;7.90;;;3.35;;
76065;SDS011;64763;48.928;8.474;2023-05-29T06:36:39;6.13;;;3.45;;
76065;SDS011;64763;48.928;8.474;2023-05-29T06:39:06;6.03;;;3.55;;
76065;SDS011;64763;48.928;8.474;2023-05-29T06:41:32;7.28;;;3.65;;
76065;SDS011;64763;48.928;8.474;2023-05-29T06:43:57;6.20;;;3.50;;
76065;SDS011;64763;48.928;8.474;2023-05-29T06:46:23;8.98;;;3.05;;
76065;SDS011;64763;48.928;8.474;2023-05-29T06:48:48;4.93;;;3.28;;
76065;SDS011;64763;48.928;8.474;2023-05-29T06:51:13;7.22;;;3.53;;
76065;SDS011;64763;48.928;8.474;2023-05-29T06:53:39;6.85;;;3.22;;
76065;SDS011;64763;48.928;8.474;2023-05-29T06:56:05;8.73;;;3.22;;
76065;SDS011;64763;48.928;8.474;2023-05-29T06:58:31;4.90;;;2.92;;
76065;SDS011;64763;48.928;8.474;2023-05-29T07:00:57;5.15;;;2.83;;
76065;SDS011;64763;48.928;8.474;2023-05-29T07:03:24;8.07;;;3.88;;
76065;SDS011;64763;48.928;8.474;2023-05-29T07:05:50;7.22;;;3.63;;
76065;SDS011;64763;48.928;8.474;2023-05-29T07:08:15;7.28;;;3.83;;
76065;SDS011;64763;48.928;8.474;2023-05-29T07:10:41;5.55;;;2.92;;
76065;SDS011;64763;48.928;8.474;2023-05-29T07:13:06;8.98;;;3.55;;
76065;SDS011;64763;48.928;8.474;2023-05-29T07:15:32;6.15;;;2.85;;
76065;SDS011;64763;48.928;8.474;2023-05-29T07:17:58;4.75;;;3.08;;
76065;SDS011;64763;48.928;8.474;2023-05-29T07:20:23;5.50;;;2.90;;
76065;SDS011;64763;48.928;8.474;2023-05-29T07:22:48;5.72;;;3.38;;
76065;SDS011;64763;48.928;8.474;2023-05-29T07:25:14;6.57;;;3.20;;
76065;SDS011;64763;48.928;8.474;2023-05-29T07:27:39;7.30;;;3.45;;
76065;SDS011;64763;48.928;8.474;2023-05-29T07:30:05;6.05;;;3.42;;
76065;SDS011;64763;48.928;8.474;2023-05-29T07:32:31;7.90;;;3.40;;
76065;SDS011;64763;48.928;8.474;2023-05-29T07:34:57;7.18;;;3.10;;
76065;SDS011;64763;48.928;8.474;2023-05-29T07:37:23;6.10;;;3.72;;
76065;SDS011;64763;48.928;8.474;2023-05-29T07:39:48;6.28;;;3.97;;
76065;SDS011;64763;48.928;8.474;2023-05-29T07:42:14;6.97;;;3.53;;
76065;SDS011;64763;48.928;8.474;2023-05-29T07:44:39;7.03;;;3.65;;
76065;SDS011;64763;48.928;8.474;2023-05-29T07:47:07;7.57;;;3.70;;
76065;SDS011;64763;48.928;8.474;2023-05-29T07:49:32;6.03;;;3.47;;
76065;SDS011;64763;48.928;8.474;2023-05-29T07:51:57;6.15;;;3.58;;
76065;SDS011;64763;48.928;8.474;2023-05-29T07:54:23;8.07;;;3.35;;
76065;SDS011;64763;48.928;8.474;2023-05-29T07:56:48;5.72;;;3.45;;
76065;SDS011;64763;48.928;8.474;2023-05-29T07:59:13;6.80;;;3.40;;
76065;SDS011;64763;48.928;8.474;2023-05-29T08:01:39;5.68;;;2.90;;
76065;SDS011;64763;48.928;8.474;2023-05-29T08:04:05;5.88;;;3.50;;
76065;SDS011;64763;48.928;8.474;2023-05-29T08:06:30;6.28;;;3.35;;
76065;SDS011;64763;48.928;8.474;2023-05-29T08:08:57;6.65;;;3.53;;
76065;SDS011;64763;48.928;8.474;2023-05-29T08:11:23;5.30;;;3.05;;
76065;SDS011;64763;48.928;8.474;2023-05-29T08:13:48;5.40;;;3.10;;
76065;SDS011;64763;48.928;8.474;2023-05-29T08:16:13;5.18;;;3.00;;
76065;SDS011;64763;48.928;8.474;2023-05-29T08:18:40;6.90;;;3.22;;
76065;SDS011;64763;48.928;8.474;2023-05-29T08:21:06;5.63;;;3.53;;
76065;SDS011;64763;48.928;8.474;2023-05-29T08:23:31;6.65;;;3.20;;
76065;SDS011;64763;48.928;8.474;2023-05-29T08:25:57;4.78;;;3.10;;
76065;SDS011;64763;48.928;8.474;2023-05-29T08:28:22;7.72;;;3.65;;
76065;SDS011;64763;48.928;8.474;2023-05-29T08:30:47;6.13;;;3.20;;
76065;SDS011;64763;48.928;8.474;2023-05-29T08:33:13;7.18;;;3.40;;
76065;SDS011;64763;48.928;8.474;2023-05-29T08:35:38;4.53;;;3.13;;
76065;SDS011;64763;48.928;8.474;2023-05-29T08:38:03;5.22;;;3.10;;
76065;SDS011;64763;48.928;8.474;2023-05-29T08:40:29;8.15;;;3.90;;
76065;SDS011;64763;48.928;8.474;2023-05-29T08:43:16;7.18;;;3.72;;
76065;SDS011;64763;48.928;8.474;2023-05-29T08:45:44;6.72;;;3.17;;
76065;SDS011;64763;48.928;8.474;2023-05-29T08:48:10;6.78;;;3.67;;
76065;SDS011;64763;48.928;8.474;2023-05-29T08:50:45;6.93;;;3.25;;
76065;SDS011;64763;48.928;8.474;2023-05-29T08:53:12;6.80;;;3.55;;
76065;SDS011;64763;48.928;8.474;2023-05-29T08:55:38;7.30;;;3.78;;
76065;SDS011;64763;48.928;8.474;2023-05-29T08:58:03;8.32;;;3.70;;
76065;SDS011;64763;48.928;8.474;2023-05-29T09:00:29;7.38;;;3.58;;
76065;SDS011;64763;48.928;8.474;2023-05-29T09:02:55;5.88;;;3.63;;
76065;SDS011;64763;48.928;8.474;2023-05-29T09:05:20;6.55;;;3.35;;
76065;SDS011;64763;48.928;8.474;2023-05-29T09:07:46;5.63;;;3.58;;
76065;SDS011;64763;48.928;8.474;2023-05-29T09:10:14;6.47;;;3.88;;
76065;SDS011;64763;48.928;8.474;2023-05-29T09:12:40;6.32;;;3.33;;
76065;SDS011;64763;48.928;8.474;2023-05-29T09:15:18;9.85;;;3.65;;
76065;SDS011;64763;48.928;8.474;2023-05-29T09:17:51;7.75;;;3.60;;
76065;SDS011;64763;48.928;8.474;2023-05-29T09:20:18;6.28;;;3.42;;
76065;SDS011;64763;48.928;8.474;2023-05-29T09:25:19;8.95;;;3.92;;
76065;SDS011;64763;48.928;8.474;2023-05-29T09:27:47;5.47;;;3.47;;
76065;SDS011;64763;48.928;8.474;2023-05-29T09:30:30;6.05;;;3.70;;
76065;SDS011;64763;48.928;8.474;2023-05-29T09:32:56;7.97;;;3.60;;
76065;SDS011;64763;48.928;8.474;2023-05-29T09:35:21;7.10;;;3.95;;
76065;SDS011;64763;48.928;8.474;2023-05-29T09:37:46;6.60;;;3.97;;
76065;SDS011;64763;48.928;8.474;2023-05-29T09:40:12;6.18;;;3.92;;
76065;SDS011;64763;48.928;8.474;2023-05-29T09:42:37;8.07;;;3.50;;
76065;SDS011;64763;48.928;8.474;2023-05-29T09:45:03;6.68;;;3.88;;
76065;SDS011;64763;48.928;8.474;2023-05-29T09:47:32;5.43;;;3.45;;
76065;SDS011;64763;48.928;8.474;2023-05-29T09:49:58;6.80;;;3.70;;
76065;SDS011;64763;48.928;8.474;2023-05-29T09:52:25;7.00;;;3.92;;
76065;SDS011;64763;48.928;8.474;2023-05-29T09:54:53;6.22;;;3.30;;
76065;SDS011;64763;48.928;8.474;2023-05-29T09:57:19;6.55;;;4.15;;
76065;SDS011;64763;48.928;8.474;2023-05-29T09:59:48;9.60;;;3.97;;
76065;SDS011;64763;48.928;8.474;2023-05-29T10:02:16;6.55;;;3.72;;
76065;SDS011;64763;48.928;8.474;2023-05-29T10:04:42;5.78;;;3.42;;
76065;SDS011;64763;48.928;8.474;2023-05-29T10:07:25;6.40;;;3.67;;
76065;SDS011;64763;48.928;8.474;2023-05-29T10:09:53;8.18;;;3.72;;
76065;SDS011;64763;48.928;8.474;2023-05-29T10:12:25;6.38;;;3.60;;
76065;SDS011;64763;48.928;8.474;2023-05-29T10:14:51;5.80;;;3.42;;
76065;SDS011;64763;48.928;8.474;2023-05-29T10:17:20;8.02;;;3.97;;
76065;SDS011;64763;48.928;8.474;2023-05-29T10:19:48;6.15;;;3.25;;
76065;SDS011;64763;48.928;8.474;2023-05-29T10:22:17;10.40;;;3.92;;
76065;SDS011;64763;48.928;8.474;2023-05-29T10:24:45;6.78;;;3.63;;
76065;SDS011;64763;48.928;8.474;2023-05-29T10:27:11;7.60;;;3.50;;
76065;SDS011;64763;48.928;8.474;2023-05-29T10:29:37;6.38;;;3.83;;
76065;SDS011;64763;48.928;8.474;2023-05-29T10:32:23;6.18;;;3.55;;
76065;SDS011;64763;48.928;8.474;2023-05-29T10:40:16;5.80;;;3.33;;
76065;SDS011;64763;48.928;8.474;2023-05-29T10:42:48;5.50;;;3.78;;
76065;SDS011;64763;48.928;8.474;2023-05-29T10:47:56;6.68;;;3.35;;
76065;SDS011;64763;48.928;8.474;2023-05-29T10:50:42;7.03;;;3.85;;
76065;SDS011;64763;48.928;8.474;2023-05-29T10:53:08;6.65;;;3.50;;
76065;SDS011;64763;48.928;8.474;2023-05-29T10:55:38;4.80;;;3.30;;
76065;SDS011;64763;48.928;8.474;2023-05-29T10:58:07;7.25;;;4.00;;
76065;SDS011;64763;48.928;8.474;2023-05-29T11:00:34;7.35;;;3.58;;
76065;SDS011;64763;48.928;8.474;2023-05-29T11:03:07;6.25;;;3.70;;
76065;SDS011;64763;48.928;8.474;2023-05-29T11:05:33;7.00;;;3.88;;
76065;SDS011;64763;48.928;8.474;2023-05-29T11:07:59;8.32;;;3.85;;
76065;SDS011;64763;48.928;8.474;2023-05-29T11:13:31;9.68;;;3.60;;
76065;SDS011;64763;48.928;8.474;2023-05-29T11:18:41;7.13;;;4.10;;
76065;SDS011;64763;48.928;8.474;2023-05-29T11:21:30;5.93;;;3.90;;
76065;SDS011;64763;48.928;8.474;2023-05-29T11:24:01;7.90;;;3.85;;
76065;SDS011;64763;48.928;8.474;2023-05-29T11:26:28;8.23;;;3.72;;
76065;SDS011;64763;48.928;8.474;2023-05-29T11:28:56;6.82;;;3.47;;
76065;SDS011;64763;48.928;8.474;2023-05-29T11:31:22;7.47;;;3.15;;
76065;SDS011;64763;48.928;8.474;2023-05-29T11:33:49;7.85;;;3.95;;
76065;SDS011;64763;48.928;8.474;2023-05-29T11:36:16;6.80;;;3.50;;
76065;SDS011;64763;48.928;8.474;2023-05-29T11:38:43;7.45;;;3.60;;
76065;SDS011;64763;48.928;8.474;2023-05-29T11:41:08;6.20;;;3.33;;
76065;SDS011;64763;48.928;8.474;2023-05-29T11:43:34;7.50;;;3.33;;
76065;SDS011;64763;48.928;8.474;2023-05-29T11:46:00;6.30;;;3.50;;
76065;SDS011;64763;48.928;8.474;2023-05-29T11:48:25;5.53;;;3.47;;
76065;SDS011;64763;48.928;8.474;2023-05-29T11:50:50;8.90;;;3.20;;
76065;SDS011;64763;48.928;8.474;2023-05-29T11:53:16;5.28;;;3.28;;
76065;SDS011;64763;48.928;8.474;2023-05-29T11:55:41;6.80;;;3.67;;
76065;SDS011;64763;48.928;8.474;2023-05-29T11:58:07;5.70;;;3.40;;
76065;SDS011;64763;48.928;8.474;2023-05-29T12:00:33;5.95;;;3.33;;
76065;SDS011;64763;48.928;8.474;2023-05-29T12:03:00;8.68;;;3.83;;
76065;SDS011;64763;48.928;8.474;2023-05-29T12:05:29;5.70;;;3.75;;
76065;SDS011;64763;48.928;8.474;2023-05-29T12:07:55;8.52;;;3.38;;
76065;SDS011;64763;48.928;8.474;2023-05-29T12:10:21;4.78;;;3.15;;
76065;SDS011;64763;48.928;8.474;2023-05-29T12:12:48;5.43;;;3.05;;
76065;SDS011;64763;48.928;8.474;2023-05-29T12:15:15;11.27;;;3.70;;
76065;SDS011;64763;48.928;8.474;2023-05-29T12:17:41;6.63;;;3.60;;
76065;SDS011;64763;48.928;8.474;2023-05-29T12:20:07;7.75;;;3.60;;
76065;SDS011;64763;48.928;8.474;2023-05-29T12:22:34;6.28;;;3.20;;
76065;SDS011;64763;48.928;8.474;2023-05-29T12:25:14;7.43;;;3.60;;
76065;SDS011;64763;48.928;8.474;2023-05-29T12:27:44;5.60;;;3.45;;
76065;SDS011;64763;48.928;8.474;2023-05-29T12:30:14;6.50;;;3.22;;
76065;SDS011;64763;48.928;8.474;2023-05-29T12:32:43;5.18;;;3.38;;
76065;SDS011;64763;48.928;8.474;2023-05-29T12:37:43;6.72;;;3.30;;
76065;SDS011;64763;48.928;8.474;2023-05-29T12:40:21;5.85;;;2.92;;
76065;SDS011;64763;48.928;8.474;2023-05-29T12:42:55;7.45;;;3.58;;
76065;SDS011;64763;48.928;8.474;2023-05-29T12:45:21;7.30;;;3.60;;
76065;SDS011;64763;48.928;8.474;2023-05-29T12:47:52;5.32;;;3.00;;
76065;SDS011;64763;48.928;8.474;2023-05-29T12:50:19;6.20;;;3.05;;
76065;SDS011;64763;48.928;8.474;2023-05-29T12:52:52;5.85;;;3.10;;
76065;SDS011;64763;48.928;8.474;2023-05-29T12:55:21;4.53;;;2.92;;
76065;SDS011;64763;48.928;8.474;2023-05-29T12:57:46;5.15;;;3.22;;
76065;SDS011;64763;48.928;8.474;2023-05-29T13:00:12;5.93;;;3.08;;
76065;SDS011;64763;48.928;8.474;2023-05-29T13:02:38;5.55;;;3.30;;
76065;SDS011;64763;48.928;8.474;2023-05-29T13:05:04;5.95;;;2.90;;
76065;SDS011;64763;48.928;8.474;2023-05-29T13:07:30;5.55;;;3.08;;
76065;SDS011;64763;48.928;8.474;2023-05-29T13:09:56;4.90;;;3.25;;
76065;SDS011;64763;48.928;8.474;2023-05-29T13:12:21;6.00;;;3.08;;
76065;SDS011;64763;48.928;8.474;2023-05-29T13:14:47;5.90;;;3.30;;
76065;SDS011;64763;48.928;8.474;2023-05-29T13:17:12;5.40;;;3.20;;
76065;SDS011;64763;48.928;8.474;2023-05-29T13:19:38;6.68;;;3.50;;
76065;SDS011;64763;48.928;8.474;2023-05-29T13:22:03;4.57;;;3.10;;
76065;SDS011;64763;48.928;8.474;2023-05-29T13:24:28;7.15;;;3.72;;
76065;SDS011;64763;48.928;8.474;2023-05-29T13:26:54;4.22;;;3.10;;
76065;SDS011;64763;48.928;8.474;2023-05-29T13:29:19;9.60;;;3.40;;
76065;SDS011;64763;48.928;8.474;2023-05-29T13:31:45;7.78;;;3.78;;
76065;SDS011;64763;48.928;8.474;2023-05-29T13:34:11;5.90;;;3.47;;
76065;SDS011;64763;48.928;8.474;2023-05-29T13:36:36;6.10;;;3.50;;
76065;SDS011;64763;48.928;8.474;2023-05-29T13:39:02;5.07;;;2.90;;
76065;SDS011;64763;48.928;8.474;2023-05-29T13:41:29;7.30;;;4.05;;
76065;SDS011;64763;48.928;8.474;2023-05-29T13:43:55;6.05;;;4.32;;
76065;SDS011;64763;48.928;8.474;2023-05-29T13:46:21;5.53;;;3.67;;
76065;SDS011;64763;48.928;8.474;2023-05-29T13:48:47;5.22;;;2.90;;
76065;SDS011;64763;48.928;8.474;2023-05-29T13:51:12;4.47;;;2.90;;
76065;SDS011;64763;48.928;8.474;2023-05-29T13:53:37;7.32;;;3.20;;
76065;SDS011;64763;48.928;8.474;2023-05-29T13:56:03;4.68;;;3.00;;
76065;SDS011;64763;48.928;8.474;2023-05-29T13:58:28;5.53;;;2.72;;
76065;SDS011;64763;48.928;8.474;2023-05-29T14:00:53;6.57;;;3.10;;
76065;SDS011;64763;48.928;8.474;2023-05-29T14:03:19;9.20;;;3.33;;
76065;SDS011;64763;48.928;8.474;2023-05-29T14:05:46;4.90;;;3.15;;
76065;SDS011;64763;48.928;8.474;2023-05-29T14:08:11;4.82;;;2.95;;
76065;SDS011;64763;48.928;8.474;2023-05-29T14:10:37;4.25;;;2.80;;
76065;SDS011;64763;48.928;8.474;2023-05-29T14:13:02;5.15;;;3.10;;
76065;SDS011;64763;48.928;8.474;2023-05-29T14:15:27;6.32;;;2.97;;
76065;SDS011;64763;48.928;8.474;2023-05-29T14:17:53;4.60;;;2.78;;
76065;SDS011;64763;48.928;8.474;2023-05-29T14:20:18;5.80;;;3.03;;
76065;SDS011;64763;48.928;8.474;2023-05-29T14:22:43;5.95;;;2.70;;
76065;SDS011;64763;48.928;8.474;2023-05-29T14:25:09;4.65;;;2.92;;
76065;SDS011;64763;48.928;8.474;2023-05-29T14:27:34;4.82;;;2.92;;
76065;SDS011;64763;48.928;8.474;2023-05-29T14:30:00;6.22;;;3.20;;
76065;SDS011;64763;48.928;8.474;2023-05-29T14:32:25;6.93;;;3.05;;
76065;SDS011;64763;48.928;8.474;2023-05-29T14:34:50;8.93;;;3.05;;
76065;SDS011;64763;48.928;8.474;2023-05-29T14:37:17;6.25;;;2.90;;
76065;SDS011;64763;48.928;8.474;2023-05-29T14:39:42;8.32;;;3.03;;
76065;SDS011;64763;48.928;8.474;2023-05-29T14:42:07;4.05;;;2.83;;
76065;SDS011;64763;48.928;8.474;2023-05-29T14:44:33;4.97;;;3.10;;
76065;SDS011;64763;48.928;8.474;2023-05-29T14:46:58;4.32;;;2.80;;
76065;SDS011;64763;48.928;8.474;2023-05-29T14:49:24;4.43;;;3.00;;
76065;SDS011;64763;48.928;8.474;2023-05-29T14:51:50;4.03;;;2.75;;
76065;SDS011;64763;48.928;8.474;2023-05-29T14:54:16;5.65;;;2.85;;
76065;SDS011;64763;48.928;8.474;2023-05-29T14:56:41;5.93;;;3.15;;
76065;SDS011;64763;48.928;8.474;2023-05-29T14:59:06;5.25;;;2.90;;
76065;SDS011;64763;48.928;8.474;2023-05-29T15:01:32;7.05;;;2.90;;
76065;SDS011;64763;48.928;8.474;2023-05-29T15:03:57;4.70;;;2.75;;
76065;SDS011;64763;48.928;8.474;2023-05-29T15:06:22;6.82;;;3.13;;